Terminal Aerodrome Forecast
Issued by NWS Wilmington, OH

Current Version | Previous Version | Graphics & Text | Print | Product List | Glossary On
Versions: 1 2 3 4 5 6 7 8 9 10 11 12 13 14 15 16 17 18 19 20 21 22 23 24 25 26
805
FTUS41 KILN 240302 AAB
TAFCMH
TAF AMD
KCMH 240302Z 2403/2424 29007KT P6SM BKN022 OVC140
     FM240400 33006KT 5SM BR OVC012
     FM240700 36005KT 5SM BR VCSH OVC008
     FM241300 05008KT 5SM -SHRA OVC015
     FM242000 08010KT P6SM VCSH OVC022=

USA.gov is the U.S. government's official web portal to all federal, state and local government web resources and services.